sensor_id;sensor_type;location;lat;lon;timestamp;P1;durP1;ratioP1;P2;durP2;ratioP2
74223;SDS011;62585;49.706;18.216;2022-09-09T00:02:22;1.70;;;0.77;;
74223;SDS011;62585;49.706;18.216;2022-09-09T00:12:53;2.08;;;1.10;;
74223;SDS011;62585;49.706;18.216;2022-09-09T00:23:25;2.15;;;1.00;;
74223;SDS011;62585;49.706;18.216;2022-09-09T00:25:59;1.50;;;1.05;;
74223;SDS011;62585;49.706;18.216;2022-09-09T00:28:41;1.55;;;0.98;;
74223;SDS011;62585;49.706;18.216;2022-09-09T00:31:31;1.77;;;0.98;;
74223;SDS011;62585;49.706;18.216;2022-09-09T00:36:43;1.73;;;1.23;;
74223;SDS011;62585;49.706;18.216;2022-09-09T00:39:29;1.45;;;0.95;;
74223;SDS011;62585;49.706;18.216;2022-09-09T00:42:13;3.03;;;1.13;;
74223;SDS011;62585;49.706;18.216;2022-09-09T00:47:39;2.25;;;1.13;;
74223;SDS011;62585;49.706;18.216;2022-09-09T00:55:43;1.52;;;1.00;;
74223;SDS011;62585;49.706;18.216;2022-09-09T00:58:13;2.70;;;1.02;;
74223;SDS011;62585;49.706;18.216;2022-09-09T01:00:48;1.50;;;0.95;;
74223;SDS011;62585;49.706;18.216;2022-09-09T01:06:21;2.20;;;1.00;;
74223;SDS011;62585;49.706;18.216;2022-09-09T01:11:36;4.03;;;1.52;;
74223;SDS011;62585;49.706;18.216;2022-09-09T01:16:52;3.80;;;1.88;;
74223;SDS011;62585;49.706;18.216;2022-09-09T01:19:27;2.58;;;1.70;;
74223;SDS011;62585;49.706;18.216;2022-09-09T01:22:26;3.13;;;1.52;;
74223;SDS011;62585;49.706;18.216;2022-09-09T01:25:18;2.60;;;1.40;;
74223;SDS011;62585;49.706;18.216;2022-09-09T01:28:05;2.45;;;1.30;;
74223;SDS011;62585;49.706;18.216;2022-09-09T01:30:37;1.75;;;1.10;;
74223;SDS011;62585;49.706;18.216;2022-09-09T01:33:04;2.53;;;1.73;;
74223;SDS011;62585;49.706;18.216;2022-09-09T01:38:19;2.20;;;1.55;;
74223;SDS011;62585;49.706;18.216;2022-09-09T01:40:47;2.92;;;1.52;;
74223;SDS011;62585;49.706;18.216;2022-09-09T01:43:13;3.58;;;1.40;;
74223;SDS011;62585;49.706;18.216;2022-09-09T01:45:39;3.20;;;1.80;;
74223;SDS011;62585;49.706;18.216;2022-09-09T01:48:09;2.90;;;1.65;;
74223;SDS011;62585;49.706;18.216;2022-09-09T01:50:35;3.17;;;1.95;;
74223;SDS011;62585;49.706;18.216;2022-09-09T01:53:01;3.13;;;1.48;;
74223;SDS011;62585;49.706;18.216;2022-09-09T01:55:30;3.03;;;1.58;;
74223;SDS011;62585;49.706;18.216;2022-09-09T01:58:05;2.33;;;1.60;;
74223;SDS011;62585;49.706;18.216;2022-09-09T02:00:37;2.42;;;1.58;;
74223;SDS011;62585;49.706;18.216;2022-09-09T02:03:16;2.08;;;1.40;;
74223;SDS011;62585;49.706;18.216;2022-09-09T02:11:07;3.88;;;1.98;;
74223;SDS011;62585;49.706;18.216;2022-09-09T02:13:38;3.83;;;2.13;;
74223;SDS011;62585;49.706;18.216;2022-09-09T02:16:09;4.50;;;1.88;;
74223;SDS011;62585;49.706;18.216;2022-09-09T02:19:12;3.55;;;1.90;;
74223;SDS011;62585;49.706;18.216;2022-09-09T02:21:43;3.05;;;1.90;;
74223;SDS011;62585;49.706;18.216;2022-09-09T02:24:11;3.90;;;2.10;;
74223;SDS011;62585;49.706;18.216;2022-09-09T02:26:41;3.63;;;2.35;;
74223;SDS011;62585;49.706;18.216;2022-09-09T02:29:10;3.35;;;2.00;;
74223;SDS011;62585;49.706;18.216;2022-09-09T02:31:42;4.10;;;2.17;;
74223;SDS011;62585;49.706;18.216;2022-09-09T02:34:11;3.72;;;2.55;;
74223;SDS011;62585;49.706;18.216;2022-09-09T02:36:40;5.05;;;2.17;;
74223;SDS011;62585;49.706;18.216;2022-09-09T02:39:09;6.15;;;1.95;;
74223;SDS011;62585;49.706;18.216;2022-09-09T02:41:37;3.03;;;1.77;;
74223;SDS011;62585;49.706;18.216;2022-09-09T02:44:08;2.50;;;1.73;;
74223;SDS011;62585;49.706;18.216;2022-09-09T02:52:26;3.10;;;2.30;;
74223;SDS011;62585;49.706;18.216;2022-09-09T02:55:03;4.60;;;2.17;;
74223;SDS011;62585;49.706;18.216;2022-09-09T02:57:35;4.20;;;2.42;;
74223;SDS011;62585;49.706;18.216;2022-09-09T03:00:02;3.10;;;2.20;;
74223;SDS011;62585;49.706;18.216;2022-09-09T03:02:29;3.47;;;1.95;;
74223;SDS011;62585;49.706;18.216;2022-09-09T03:04:56;5.35;;;2.42;;
74223;SDS011;62585;49.706;18.216;2022-09-09T03:07:21;3.97;;;2.70;;
74223;SDS011;62585;49.706;18.216;2022-09-09T03:09:47;3.20;;;2.47;;
74223;SDS011;62585;49.706;18.216;2022-09-09T03:12:14;5.32;;;2.67;;
74223;SDS011;62585;49.706;18.216;2022-09-09T03:14:41;4.45;;;2.45;;
74223;SDS011;62585;49.706;18.216;2022-09-09T03:17:08;3.65;;;2.05;;
74223;SDS011;62585;49.706;18.216;2022-09-09T03:19:34;6.30;;;2.70;;
74223;SDS011;62585;49.706;18.216;2022-09-09T03:22:01;3.85;;;2.13;;
74223;SDS011;62585;49.706;18.216;2022-09-09T03:24:27;3.88;;;2.42;;
74223;SDS011;62585;49.706;18.216;2022-09-09T03:26:53;4.38;;;2.25;;
74223;SDS011;62585;49.706;18.216;2022-09-09T03:29:21;4.18;;;2.47;;
74223;SDS011;62585;49.706;18.216;2022-09-09T03:31:47;4.65;;;2.70;;
74223;SDS011;62585;49.706;18.216;2022-09-09T03:34:14;4.78;;;2.65;;
74223;SDS011;62585;49.706;18.216;2022-09-09T03:36:40;2.97;;;1.92;;
74223;SDS011;62585;49.706;18.216;2022-09-09T03:39:06;4.03;;;2.30;;
74223;SDS011;62585;49.706;18.216;2022-09-09T03:41:32;3.40;;;2.47;;
74223;SDS011;62585;49.706;18.216;2022-09-09T03:43:59;3.42;;;2.40;;
74223;SDS011;62585;49.706;18.216;2022-09-09T03:46:25;3.50;;;2.10;;
74223;SDS011;62585;49.706;18.216;2022-09-09T03:51:18;4.22;;;2.13;;
74223;SDS011;62585;49.706;18.216;2022-09-09T03:53:44;4.38;;;2.50;;
74223;SDS011;62585;49.706;18.216;2022-09-09T03:56:10;3.28;;;1.95;;
74223;SDS011;62585;49.706;18.216;2022-09-09T03:58:37;3.97;;;2.17;;
74223;SDS011;62585;49.706;18.216;2022-09-09T04:01:04;3.50;;;2.10;;
74223;SDS011;62585;49.706;18.216;2022-09-09T04:03:34;3.92;;;1.80;;
74223;SDS011;62585;49.706;18.216;2022-09-09T04:06:00;3.58;;;2.25;;
74223;SDS011;62585;49.706;18.216;2022-09-09T04:08:28;3.05;;;2.10;;
74223;SDS011;62585;49.706;18.216;2022-09-09T04:10:56;4.10;;;2.13;;
74223;SDS011;62585;49.706;18.216;2022-09-09T04:13:23;3.35;;;2.22;;
74223;SDS011;62585;49.706;18.216;2022-09-09T04:15:54;6.60;;;2.30;;
74223;SDS011;62585;49.706;18.216;2022-09-09T04:18:21;5.13;;;2.30;;
74223;SDS011;62585;49.706;18.216;2022-09-09T04:20:48;4.15;;;2.00;;
74223;SDS011;62585;49.706;18.216;2022-09-09T04:23:15;3.38;;;2.50;;
74223;SDS011;62585;49.706;18.216;2022-09-09T04:25:45;3.75;;;2.13;;
74223;SDS011;62585;49.706;18.216;2022-09-09T04:28:12;3.63;;;2.55;;
74223;SDS011;62585;49.706;18.216;2022-09-09T04:30:40;2.92;;;1.90;;
74223;SDS011;62585;49.706;18.216;2022-09-09T04:33:07;3.97;;;2.47;;
74223;SDS011;62585;49.706;18.216;2022-09-09T04:35:33;3.60;;;2.03;;
74223;SDS011;62585;49.706;18.216;2022-09-09T04:37:59;3.88;;;2.10;;
74223;SDS011;62585;49.706;18.216;2022-09-09T04:40:26;3.03;;;2.10;;
74223;SDS011;62585;49.706;18.216;2022-09-09T04:42:52;4.18;;;2.10;;
74223;SDS011;62585;49.706;18.216;2022-09-09T04:45:18;3.35;;;2.38;;
74223;SDS011;62585;49.706;18.216;2022-09-09T04:47:45;4.03;;;2.03;;
74223;SDS011;62585;49.706;18.216;2022-09-09T04:50:11;3.15;;;2.30;;
74223;SDS011;62585;49.706;18.216;2022-09-09T04:52:37;3.92;;;2.33;;
74223;SDS011;62585;49.706;18.216;2022-09-09T04:55:03;3.50;;;2.40;;
74223;SDS011;62585;49.706;18.216;2022-09-09T04:57:29;3.28;;;2.83;;
74223;SDS011;62585;49.706;18.216;2022-09-09T04:59:57;5.03;;;2.30;;
74223;SDS011;62585;49.706;18.216;2022-09-09T05:02:26;3.38;;;2.30;;
74223;SDS011;62585;49.706;18.216;2022-09-09T05:04:52;3.85;;;2.25;;
74223;SDS011;62585;49.706;18.216;2022-09-09T05:07:17;5.05;;;2.50;;
74223;SDS011;62585;49.706;18.216;2022-09-09T05:09:44;4.35;;;2.30;;
74223;SDS011;62585;49.706;18.216;2022-09-09T05:12:10;3.38;;;2.40;;
74223;SDS011;62585;49.706;18.216;2022-09-09T05:14:36;3.70;;;2.20;;
74223;SDS011;62585;49.706;18.216;2022-09-09T05:17:03;3.35;;;2.15;;
74223;SDS011;62585;49.706;18.216;2022-09-09T05:19:29;3.40;;;2.05;;
74223;SDS011;62585;49.706;18.216;2022-09-09T05:21:56;5.53;;;2.83;;
74223;SDS011;62585;49.706;18.216;2022-09-09T05:24:22;4.30;;;2.50;;
74223;SDS011;62585;49.706;18.216;2022-09-09T05:26:48;4.40;;;2.78;;
74223;SDS011;62585;49.706;18.216;2022-09-09T05:29:14;5.82;;;2.67;;
74223;SDS011;62585;49.706;18.216;2022-09-09T05:31:40;4.78;;;3.08;;
74223;SDS011;62585;49.706;18.216;2022-09-09T05:34:06;5.55;;;3.15;;
74223;SDS011;62585;49.706;18.216;2022-09-09T05:36:32;4.78;;;3.50;;
74223;SDS011;62585;49.706;18.216;2022-09-09T05:38:58;5.45;;;3.05;;
74223;SDS011;62585;49.706;18.216;2022-09-09T05:41:25;6.10;;;3.13;;
74223;SDS011;62585;49.706;18.216;2022-09-09T05:43:51;6.03;;;3.40;;
74223;SDS011;62585;49.706;18.216;2022-09-09T05:46:18;5.13;;;3.25;;
74223;SDS011;62585;49.706;18.216;2022-09-09T05:48:46;6.32;;;3.53;;
74223;SDS011;62585;49.706;18.216;2022-09-09T05:53:44;4.15;;;2.97;;
74223;SDS011;62585;49.706;18.216;2022-09-09T05:56:17;7.00;;;2.90;;
74223;SDS011;62585;49.706;18.216;2022-09-09T05:58:45;3.72;;;2.45;;
74223;SDS011;62585;49.706;18.216;2022-09-09T06:01:19;4.65;;;3.15;;
74223;SDS011;62585;49.706;18.216;2022-09-09T06:03:48;5.72;;;3.72;;
74223;SDS011;62585;49.706;18.216;2022-09-09T06:06:15;8.48;;;3.67;;
74223;SDS011;62585;49.706;18.216;2022-09-09T06:08:43;6.57;;;4.20;;
74223;SDS011;62585;49.706;18.216;2022-09-09T06:11:15;7.65;;;4.38;;
74223;SDS011;62585;49.706;18.216;2022-09-09T06:13:45;7.63;;;3.60;;
74223;SDS011;62585;49.706;18.216;2022-09-09T06:16:14;6.13;;;3.60;;
74223;SDS011;62585;49.706;18.216;2022-09-09T06:18:41;7.43;;;4.05;;
74223;SDS011;62585;49.706;18.216;2022-09-09T06:21:20;7.35;;;4.32;;
74223;SDS011;62585;49.706;18.216;2022-09-09T06:23:49;6.18;;;3.40;;
74223;SDS011;62585;49.706;18.216;2022-09-09T06:28:47;6.55;;;3.67;;
74223;SDS011;62585;49.706;18.216;2022-09-09T06:31:14;6.75;;;4.03;;
74223;SDS011;62585;49.706;18.216;2022-09-09T06:33:48;8.30;;;5.20;;
74223;SDS011;62585;49.706;18.216;2022-09-09T06:36:19;8.00;;;4.45;;
74223;SDS011;62585;49.706;18.216;2022-09-09T06:38:46;10.40;;;5.05;;
74223;SDS011;62585;49.706;18.216;2022-09-09T06:41:13;10.88;;;6.10;;
74223;SDS011;62585;49.706;18.216;2022-09-09T06:43:40;9.10;;;5.18;;
74223;SDS011;62585;49.706;18.216;2022-09-09T06:48:39;11.50;;;4.97;;
74223;SDS011;62585;49.706;18.216;2022-09-09T06:51:14;15.32;;;6.05;;
74223;SDS011;62585;49.706;18.216;2022-09-09T06:53:45;11.35;;;6.03;;
74223;SDS011;62585;49.706;18.216;2022-09-09T06:58:47;15.68;;;6.80;;
74223;SDS011;62585;49.706;18.216;2022-09-09T07:01:15;13.40;;;7.53;;
74223;SDS011;62585;49.706;18.216;2022-09-09T07:03:44;16.67;;;7.25;;
74223;SDS011;62585;49.706;18.216;2022-09-09T07:06:14;15.55;;;7.07;;
74223;SDS011;62585;49.706;18.216;2022-09-09T07:08:43;16.15;;;7.93;;
74223;SDS011;62585;49.706;18.216;2022-09-09T07:11:13;14.00;;;6.28;;
74223;SDS011;62585;49.706;18.216;2022-09-09T07:13:39;10.57;;;5.25;;
74223;SDS011;62585;49.706;18.216;2022-09-09T07:16:09;13.48;;;6.22;;
74223;SDS011;62585;49.706;18.216;2022-09-09T07:18:36;10.30;;;4.75;;
74223;SDS011;62585;49.706;18.216;2022-09-09T07:21:02;10.07;;;5.30;;
74223;SDS011;62585;49.706;18.216;2022-09-09T07:23:30;8.90;;;6.05;;
74223;SDS011;62585;49.706;18.216;2022-09-09T07:25:56;10.30;;;6.30;;
74223;SDS011;62585;49.706;18.216;2022-09-09T07:30:56;9.57;;;5.15;;
74223;SDS011;62585;49.706;18.216;2022-09-09T07:33:24;9.38;;;4.63;;
74223;SDS011;62585;49.706;18.216;2022-09-09T07:35:51;10.98;;;5.45;;
74223;SDS011;62585;49.706;18.216;2022-09-09T07:38:18;9.85;;;5.28;;
74223;SDS011;62585;49.706;18.216;2022-09-09T07:40:45;11.23;;;5.30;;
74223;SDS011;62585;49.706;18.216;2022-09-09T07:43:12;8.95;;;5.28;;
74223;SDS011;62585;49.706;18.216;2022-09-09T07:45:37;8.20;;;3.85;;
74223;SDS011;62585;49.706;18.216;2022-09-09T07:48:04;8.98;;;4.07;;
74223;SDS011;62585;49.706;18.216;2022-09-09T07:52:56;5.70;;;2.95;;
74223;SDS011;62585;49.706;18.216;2022-09-09T07:55:23;4.57;;;2.90;;
74223;SDS011;62585;49.706;18.216;2022-09-09T07:57:52;5.70;;;3.28;;
74223;SDS011;62585;49.706;18.216;2022-09-09T08:02:47;4.28;;;2.72;;
74223;SDS011;62585;49.706;18.216;2022-09-09T08:05:14;4.65;;;2.78;;
74223;SDS011;62585;49.706;18.216;2022-09-09T08:07:40;7.22;;;2.85;;
74223;SDS011;62585;49.706;18.216;2022-09-09T08:10:06;6.20;;;3.00;;
74223;SDS011;62585;49.706;18.216;2022-09-09T08:12:32;4.32;;;2.83;;
74223;SDS011;62585;49.706;18.216;2022-09-09T08:14:58;5.77;;;3.07;;
74223;SDS011;62585;49.706;18.216;2022-09-09T08:17:27;5.85;;;3.30;;
74223;SDS011;62585;49.706;18.216;2022-09-09T08:19:53;4.35;;;2.60;;
74223;SDS011;62585;49.706;18.216;2022-09-09T08:22:19;6.13;;;3.10;;
74223;SDS011;62585;49.706;18.216;2022-09-09T08:24:45;5.22;;;2.58;;
74223;SDS011;62585;49.706;18.216;2022-09-09T08:27:12;5.15;;;2.50;;
74223;SDS011;62585;49.706;18.216;2022-09-09T08:29:38;5.45;;;3.63;;
74223;SDS011;62585;49.706;18.216;2022-09-09T08:32:04;5.35;;;3.22;;
74223;SDS011;62585;49.706;18.216;2022-09-09T08:34:31;4.05;;;2.85;;
74223;SDS011;62585;49.706;18.216;2022-09-09T08:36:57;3.35;;;2.50;;
74223;SDS011;62585;49.706;18.216;2022-09-09T08:39:23;6.55;;;3.30;;
74223;SDS011;62585;49.706;18.216;2022-09-09T08:52:42;2.80;;;1.98;;
74223;SDS011;62585;49.706;18.216;2022-09-09T08:55:27;2.55;;;1.48;;
74223;SDS011;62585;49.706;18.216;2022-09-09T08:58:08;2.63;;;1.67;;
74223;SDS011;62585;49.706;18.216;2022-09-09T09:00:41;2.33;;;1.52;;
74223;SDS011;62585;49.706;18.216;2022-09-09T09:03:29;2.08;;;1.33;;
74223;SDS011;62585;49.706;18.216;2022-09-09T09:09:01;2.70;;;1.70;;
74223;SDS011;62585;49.706;18.216;2022-09-09T09:14:20;3.28;;;1.50;;
74223;SDS011;62585;49.706;18.216;2022-09-09T09:16:58;3.17;;;1.80;;
74223;SDS011;62585;49.706;18.216;2022-09-09T09:19:47;2.15;;;1.40;;
74223;SDS011;62585;49.706;18.216;2022-09-09T09:27:46;2.78;;;1.52;;
74223;SDS011;62585;49.706;18.216;2022-09-09T09:31:31;2.17;;;1.33;;
74223;SDS011;62585;49.706;18.216;2022-09-09T09:33:35;2.60;;;1.60;;
74223;SDS011;62585;49.706;18.216;2022-09-09T09:36:15;1.83;;;1.30;;
74223;SDS011;62585;49.706;18.216;2022-09-09T09:38:52;2.15;;;1.30;;
74223;SDS011;62585;49.706;18.216;2022-09-09T09:44:25;1.63;;;1.30;;
74223;SDS011;62585;49.706;18.216;2022-09-09T09:49:39;3.03;;;1.70;;
74223;SDS011;62585;49.706;18.216;2022-09-09T09:52:16;2.25;;;1.17;;
74223;SDS011;62585;49.706;18.216;2022-09-09T09:54:46;2.75;;;1.27;;
74223;SDS011;62585;49.706;18.216;2022-09-09T09:57:13;2.20;;;1.42;;
74223;SDS011;62585;49.706;18.216;2022-09-09T09:59:41;2.30;;;1.20;;
74223;SDS011;62585;49.706;18.216;2022-09-09T10:02:15;2.50;;;1.58;;
74223;SDS011;62585;49.706;18.216;2022-09-09T10:04:46;1.92;;;1.20;;
74223;SDS011;62585;49.706;18.216;2022-09-09T10:07:19;0.88;;;0.80;;
74223;SDS011;62585;49.706;18.216;2022-09-09T10:09:49;1.45;;;0.88;;
74223;SDS011;62585;49.706;18.216;2022-09-09T10:21:11;2.42;;;1.02;;
74223;SDS011;62585;49.706;18.216;2022-09-09T10:27:04;1.55;;;1.20;;
74223;SDS011;62585;49.706;18.216;2022-09-09T10:38:10;1.42;;;0.95;;
74223;SDS011;62585;49.706;18.216;2022-09-09T10:46:29;1.45;;;1.17;;
74223;SDS011;62585;49.706;18.216;2022-09-09T10:55:24;1.60;;;0.88;;
74223;SDS011;62585;49.706;18.216;2022-09-09T11:00:06;1.02;;;0.70;;
74223;SDS011;62585;49.706;18.216;2022-09-09T11:03:03;1.35;;;0.85;;
74223;SDS011;62585;49.706;18.216;2022-09-09T11:08:12;1.27;;;0.77;;
74223;SDS011;62585;49.706;18.216;2022-09-09T11:13:24;1.60;;;0.80;;
74223;SDS011;62585;49.706;18.216;2022-09-09T11:16:05;1.33;;;0.95;;
74223;SDS011;62585;49.706;18.216;2022-09-09T11:18:42;1.67;;;0.85;;
74223;SDS011;62585;49.706;18.216;2022-09-09T11:21:16;1.58;;;0.80;;
74223;SDS011;62585;49.706;18.216;2022-09-09T11:23:56;1.00;;;0.60;;
74223;SDS011;62585;49.706;18.216;2022-09-09T11:26:38;1.48;;;0.77;;
74223;SDS011;62585;49.706;18.216;2022-09-09T11:32:00;2.50;;;0.82;;
74223;SDS011;62585;49.706;18.216;2022-09-09T11:40:15;1.70;;;0.80;;
74223;SDS011;62585;49.706;18.216;2022-09-09T11:42:42;1.63;;;1.10;;
74223;SDS011;62585;49.706;18.216;2022-09-09T11:45:09;1.67;;;1.00;;
74223;SDS011;62585;49.706;18.216;2022-09-09T11:47:56;1.27;;;0.80;;
74223;SDS011;62585;49.706;18.216;2022-09-09T11:53:04;2.08;;;0.82;;
74223;SDS011;62585;49.706;18.216;2022-09-09T11:55:39;1.13;;;0.85;;
74223;SDS011;62585;49.706;18.216;2022-09-09T11:58:13;2.42;;;0.70;;
74223;SDS011;62585;49.706;18.216;2022-09-09T12:00:45;1.10;;;0.70;;
74223;SDS011;62585;49.706;18.216;2022-09-09T12:05:56;0.95;;;0.73;;
74223;SDS011;62585;49.706;18.216;2022-09-09T12:08:26;1.35;;;0.80;;
74223;SDS011;62585;49.706;18.216;2022-09-09T12:10:55;0.77;;;0.68;;
74223;SDS011;62585;49.706;18.216;2022-09-09T12:13:23;1.58;;;0.95;;
74223;SDS011;62585;49.706;18.216;2022-09-09T12:15:52;1.05;;;0.70;;
74223;SDS011;62585;49.706;18.216;2022-09-09T12:18:22;1.20;;;0.80;;
74223;SDS011;62585;49.706;18.216;2022-09-09T12:24:47;1.02;;;0.75;;
74223;SDS011;62585;49.706;18.216;2022-09-09T12:26:55;2.40;;;0.90;;
74223;SDS011;62585;49.706;18.216;2022-09-09T12:29:30;1.52;;;0.98;;
74223;SDS011;62585;49.706;18.216;2022-09-09T12:32:10;1.40;;;0.80;;
74223;SDS011;62585;49.706;18.216;2022-09-09T12:34:49;1.10;;;0.80;;
74223;SDS011;62585;49.706;18.216;2022-09-09T12:39:56;1.70;;;0.90;;
74223;SDS011;62585;49.706;18.216;2022-09-09T12:42:25;2.47;;;0.80;;
74223;SDS011;62585;49.706;18.216;2022-09-09T12:44:53;1.75;;;0.70;;
74223;SDS011;62585;49.706;18.216;2022-09-09T12:47:21;3.53;;;0.80;;
74223;SDS011;62585;49.706;18.216;2022-09-09T12:50:15;1.30;;;0.75;;
74223;SDS011;62585;49.706;18.216;2022-09-09T12:52:47;2.95;;;1.00;;
74223;SDS011;62585;49.706;18.216;2022-09-09T12:55:18;2.50;;;0.93;;
74223;SDS011;62585;49.706;18.216;2022-09-09T12:57:47;1.58;;;0.82;;
74223;SDS011;62585;49.706;18.216;2022-09-09T13:00:19;1.77;;;0.80;;
74223;SDS011;62585;49.706;18.216;2022-09-09T13:02:54;1.25;;;1.02;;
74223;SDS011;62585;49.706;18.216;2022-09-09T13:05:33;1.30;;;0.80;;
74223;SDS011;62585;49.706;18.216;2022-09-09T13:08:02;3.05;;;0.85;;
74223;SDS011;62585;49.706;18.216;2022-09-09T13:10:32;1.20;;;0.70;;
74223;SDS011;62585;49.706;18.216;2022-09-09T13:13:01;1.13;;;0.80;;
74223;SDS011;62585;49.706;18.216;2022-09-09T13:15:28;1.33;;;0.80;;
74223;SDS011;62585;49.706;18.216;2022-09-09T13:17:56;1.85;;;0.80;;
74223;SDS011;62585;49.706;18.216;2022-09-09T13:20:26;1.58;;;1.00;;
74223;SDS011;62585;49.706;18.216;2022-09-09T13:22:53;1.70;;;0.80;;
74223;SDS011;62585;49.706;18.216;2022-09-09T13:25:27;1.63;;;0.88;;
74223;SDS011;62585;49.706;18.216;2022-09-09T13:30:30;1.58;;;0.90;;
74223;SDS011;62585;49.706;18.216;2022-09-09T13:33:19;2.22;;;0.90;;
74223;SDS011;62585;49.706;18.216;2022-09-09T13:35:53;1.27;;;0.80;;
74223;SDS011;62585;49.706;18.216;2022-09-09T13:38:21;1.30;;;0.90;;
74223;SDS011;62585;49.706;18.216;2022-09-09T13:43:27;1.33;;;0.82;;
74223;SDS011;62585;49.706;18.216;2022-09-09T13:45:59;1.52;;;0.80;;
74223;SDS011;62585;49.706;18.216;2022-09-09T13:48:28;1.00;;;0.70;;
74223;SDS011;62585;49.706;18.216;2022-09-09T13:50:57;2.35;;;0.90;;
74223;SDS011;62585;49.706;18.216;2022-09-09T13:53:25;1.48;;;0.80;;
74223;SDS011;62585;49.706;18.216;2022-09-09T13:55:51;2.65;;;1.15;;
74223;SDS011;62585;49.706;18.216;2022-09-09T13:58:19;1.20;;;0.80;;
74223;SDS011;62585;49.706;18.216;2022-09-09T14:00:45;0.63;;;0.60;;
74223;SDS011;62585;49.706;18.216;2022-09-09T14:03:12;1.92;;;0.90;;
74223;SDS011;62585;49.706;18.216;2022-09-09T14:05:38;2.10;;;0.82;;
74223;SDS011;62585;49.706;18.216;2022-09-09T14:08:04;2.63;;;0.90;;
74223;SDS011;62585;49.706;18.216;2022-09-09T14:10:31;0.95;;;0.68;;
74223;SDS011;62585;49.706;18.216;2022-09-09T14:12:59;1.20;;;0.90;;
74223;SDS011;62585;49.706;18.216;2022-09-09T14:15:25;1.58;;;0.80;;
74223;SDS011;62585;49.706;18.216;2022-09-09T14:17:52;2.78;;;0.95;;
74223;SDS011;62585;49.706;18.216;2022-09-09T14:20:18;1.27;;;0.70;;
74223;SDS011;62585;49.706;18.216;2022-09-09T14:22:44;1.23;;;0.80;;
74223;SDS011;62585;49.706;18.216;2022-09-09T14:25:10;1.23;;;0.80;;
74223;SDS011;62585;49.706;18.216;2022-09-09T14:27:39;2.30;;;0.90;;
74223;SDS011;62585;49.706;18.216;2022-09-09T14:30:05;1.98;;;1.20;;
74223;SDS011;62585;49.706;18.216;2022-09-09T14:32:32;1.67;;;1.02;;
74223;SDS011;62585;49.706;18.216;2022-09-09T14:34:58;1.80;;;0.80;;
74223;SDS011;62585;49.706;18.216;2022-09-09T14:37:24;1.20;;;0.80;;
74223;SDS011;62585;49.706;18.216;2022-09-09T14:39:51;1.52;;;0.90;;
74223;SDS011;62585;49.706;18.216;2022-09-09T14:42:18;1.48;;;1.13;;
74223;SDS011;62585;49.706;18.216;2022-09-09T14:44:44;1.42;;;1.08;;
74223;SDS011;62585;49.706;18.216;2022-09-09T14:47:10;3.30;;;1.25;;
74223;SDS011;62585;49.706;18.216;2022-09-09T14:49:36;1.20;;;0.80;;
74223;SDS011;62585;49.706;18.216;2022-09-09T14:54:29;1.63;;;0.90;;
74223;SDS011;62585;49.706;18.216;2022-09-09T14:56:55;1.75;;;1.00;;
74223;SDS011;62585;49.706;18.216;2022-09-09T14:59:21;1.00;;;0.70;;
74223;SDS011;62585;49.706;18.216;2022-09-09T15:01:47;3.85;;;1.02;;
74223;SDS011;62585;49.706;18.216;2022-09-09T15:04:14;1.17;;;0.80;;
74223;SDS011;62585;49.706;18.216;2022-09-09T15:06:42;1.30;;;0.80;;
74223;SDS011;62585;49.706;18.216;2022-09-09T15:09:12;1.30;;;0.90;;
74223;SDS011;62585;49.706;18.216;2022-09-09T15:11:38;1.67;;;0.90;;
74223;SDS011;62585;49.706;18.216;2022-09-09T15:14:04;3.28;;;1.00;;
74223;SDS011;62585;49.706;18.216;2022-09-09T15:16:31;1.90;;;0.80;;
74223;SDS011;62585;49.706;18.216;2022-09-09T15:18:58;2.30;;;1.08;;
74223;SDS011;62585;49.706;18.216;2022-09-09T15:21:26;1.67;;;1.05;;
74223;SDS011;62585;49.706;18.216;2022-09-09T15:23:54;2.33;;;0.90;;
74223;SDS011;62585;49.706;18.216;2022-09-09T15:26:21;1.50;;;0.88;;
74223;SDS011;62585;49.706;18.216;2022-09-09T15:28:48;1.98;;;1.00;;
74223;SDS011;62585;49.706;18.216;2022-09-09T15:31:22;1.63;;;0.98;;
74223;SDS011;62585;49.706;18.216;2022-09-09T15:33:56;1.23;;;0.82;;
74223;SDS011;62585;49.706;18.216;2022-09-09T15:39:00;3.45;;;0.90;;
74223;SDS011;62585;49.706;18.216;2022-09-09T15:41:28;2.75;;;0.80;;
74223;SDS011;62585;49.706;18.216;2022-09-09T15:43:55;1.73;;;1.10;;
74223;SDS011;62585;49.706;18.216;2022-09-09T15:46:29;1.23;;;1.00;;
74223;SDS011;62585;49.706;18.216;2022-09-09T15:48:58;1.80;;;0.95;;
74223;SDS011;62585;49.706;18.216;2022-09-09T15:51:30;2.05;;;1.08;;
74223;SDS011;62585;49.706;18.216;2022-09-09T15:53:56;2.10;;;1.00;;
74223;SDS011;62585;49.706;18.216;2022-09-09T15:56:24;2.78;;;0.95;;
74223;SDS011;62585;49.706;18.216;2022-09-09T15:58:53;2.45;;;1.33;;
74223;SDS011;62585;49.706;18.216;2022-09-09T16:01:20;2.67;;;0.90;;
74223;SDS011;62585;49.706;18.216;2022-09-09T16:03:46;1.50;;;1.02;;
74223;SDS011;62585;49.706;18.216;2022-09-09T16:06:14;0.93;;;0.70;;
74223;SDS011;62585;49.706;18.216;2022-09-09T16:08:43;2.53;;;1.30;;
74223;SDS011;62585;49.706;18.216;2022-09-09T16:11:12;1.42;;;1.00;;
74223;SDS011;62585;49.706;18.216;2022-09-09T16:13:41;1.83;;;1.25;;
74223;SDS011;62585;49.706;18.216;2022-09-09T16:16:13;1.95;;;1.20;;
74223;SDS011;62585;49.706;18.216;2022-09-09T16:18:44;2.25;;;1.17;;
74223;SDS011;62585;49.706;18.216;2022-09-09T16:21:21;2.70;;;0.98;;
74223;SDS011;62585;49.706;18.216;2022-09-09T16:23:54;2.28;;;1.42;;
74223;SDS011;62585;49.706;18.216;2022-09-09T16:26:21;1.88;;;1.13;;
74223;SDS011;62585;49.706;18.216;2022-09-09T16:28:48;2.42;;;1.55;;
74223;SDS011;62585;49.706;18.216;2022-09-09T16:31:18;2.53;;;1.13;;
74223;SDS011;62585;49.706;18.216;2022-09-09T16:33:46;1.70;;;1.10;;
74223;SDS011;62585;49.706;18.216;2022-09-09T16:36:20;2.70;;;1.45;;
74223;SDS011;62585;49.706;18.216;2022-09-09T16:38:59;1.75;;;1.30;;
74223;SDS011;62585;49.706;18.216;2022-09-09T16:41:27;1.60;;;1.20;;
74223;SDS011;62585;49.706;18.216;2022-09-09T16:43:55;2.08;;;1.20;;
74223;SDS011;62585;49.706;18.216;2022-09-09T16:46:22;1.90;;;1.10;;
74223;SDS011;62585;49.706;18.216;2022-09-09T16:51:16;3.17;;;1.30;;
74223;SDS011;62585;49.706;18.216;2022-09-09T16:53:43;2.75;;;1.23;;
74223;SDS011;62585;49.706;18.216;2022-09-09T16:56:15;1.65;;;1.25;;
74223;SDS011;62585;49.706;18.216;2022-09-09T16:58:42;2.60;;;0.95;;
74223;SDS011;62585;49.706;18.216;2022-09-09T17:01:10;1.70;;;1.02;;
74223;SDS011;62585;49.706;18.216;2022-09-09T17:03:39;2.67;;;1.10;;
74223;SDS011;62585;49.706;18.216;2022-09-09T17:06:09;2.22;;;1.00;;
74223;SDS011;62585;49.706;18.216;2022-09-09T17:08:37;2.13;;;1.20;;
74223;SDS011;62585;49.706;18.216;2022-09-09T17:11:10;1.55;;;0.93;;
74223;SDS011;62585;49.706;18.216;2022-09-09T17:13:44;1.90;;;1.30;;
74223;SDS011;62585;49.706;18.216;2022-09-09T17:16:11;3.40;;;1.33;;
74223;SDS011;62585;49.706;18.216;2022-09-09T17:18:38;1.95;;;1.00;;
74223;SDS011;62585;49.706;18.216;2022-09-09T17:21:06;1.85;;;1.13;;
74223;SDS011;62585;49.706;18.216;2022-09-09T17:23:39;3.13;;;1.30;;
74223;SDS011;62585;49.706;18.216;2022-09-09T17:26:07;4.50;;;1.65;;
74223;SDS011;62585;49.706;18.216;2022-09-09T17:28:35;2.95;;;1.73;;
74223;SDS011;62585;49.706;18.216;2022-09-09T17:31:04;2.80;;;1.45;;
74223;SDS011;62585;49.706;18.216;2022-09-09T17:33:32;4.65;;;1.90;;
74223;SDS011;62585;49.706;18.216;2022-09-09T17:36:01;4.85;;;1.70;;
74223;SDS011;62585;49.706;18.216;2022-09-09T17:38:31;4.28;;;1.95;;
74223;SDS011;62585;49.706;18.216;2022-09-09T17:41:05;3.35;;;1.80;;